Galena, Nevada Weather observations

Data are for 10 minute period ending at time listed.
 Day   Time    Ave.   Ave.  Ave.  Vector   Max.   Total    Solar   
  of    of     Air    Rel.  Wind   Wind    Wind  Precip.   Rad.    
Year   Day     Temp.  Hum.  Speed  Dir.    Gust                    
2015   (PST)    F      %     mph   deg.    mph     in.     W/m2    
------------------------------------------------------------------- 
  30    3:00   37.0    79    2.0   302      5.0    6.74       0  
  30    4:00   36.0    81    4.0   326      5.0    6.74       0  
  30    5:00   39.0    79    5.0   319      6.0    6.74       0  
  30    6:00   39.0    80    4.0   336      7.0    6.74       0  
  30    7:00   37.0    81    0.0   293      4.0    6.74       0  
  30    8:00   35.0    85    5.0   351      6.0    6.74       7  
  30    9:00   37.0    84    6.0   358      9.0    6.74      55  
  30   10:00   39.0    79    7.0    16     13.0    6.74     135  
  30   11:00   41.0    74    8.0    22     13.0    6.74     250  
  30   12:00   48.0    60    7.0    49     14.0    6.74     560  
  30   13:00   46.0    62    8.0    24     15.0    6.74     453  
  30   14:00   46.0    55    7.0     8     15.0    6.74     428  
  30   15:00   48.0    50    9.0    13     17.0    6.74     457  
  30   16:00   48.0    50    8.0   359     19.0    6.74     316  
  30   17:00   40.0    58    6.0   350     12.0    6.74      94  
  30   18:00   39.0    65    6.0   330     13.0    6.74       4  
  30   19:00   36.0    66    7.0   334     13.0    6.74       0  
  30   20:00   35.0    66    8.0   337     15.0    6.74       0  
  30   21:00   34.0    72    7.0   337     15.0    6.74       0  
  30   22:00   33.0    78    9.0   341     16.0    6.74       0  
  30   23:00   32.0    79    7.0   328     17.0    6.74       0  
  31    0:00   34.0    73    7.0   337     17.0    6.74       0  
  31    1:00   32.0    76    7.0   346     11.0    6.74       0  
  31    2:00   32.0    75    6.0   338     13.0    6.74       0  

Return to Galena, Nevada graphs page.


Western Regional Climate Center,wrcc@dri.edu